Everhartville, Pennsylvania
Current Conditions -  °F | °C
As of 4:56 PM on Thursday 27 Nov 2014 (Local Time) from KCXY Reporting Station
Light Snow Light Snow  
Wind Chill: -1°   Ceiling: 4200
Heat Index:   Visibility: 7mi
Dew Point: -1°   Wind: 8mph
Humidity: 76%   Direction: 330°NNW
Pressure: 30.08"   Gusts: NA
Location:  40.4932°N, 77.217°W
Report Text: KCXY 272156Z AUTO 33007KT 7SM -SN SCT034 BKN042 OVC055 03/M01 A3008 RMK AO2 RAB45E48SNB48 SLP190 P0000 T00281011
Loading
Personal Weather Stations






























Interactive Weather Map New forecast layout! Learn more

10-Day Weather Forecast

Advertisements
Track Severe Weather on mobile